Time;durP1;ratioP1;P1;durP2;ratioP2;P2;SDS_P1;SDS_P2;PMS_P1;PMS_P2;Temp;Humidity;BMP_temperature;BMP_pressure;BME280_temperature;BME280_humidity;BME280_pressure;Samples;Min_cycle;Max_cycle;Signal;HPM_P1;HPM_P2
2021/08/27 00:01:04;;;;;;;25.08;17.58;;;;;;;;;;5096107;28;20024;-81
2021/08/27 00:03:30;;;;;;;24.63;15.70;;;;;;;;;;5099433;28;20024;-79
2021/08/27 00:05:58;;;;;;;25.05;15.63;;;;;;;;;;5103609;28;20410;-78
2021/08/27 00:08:24;;;;;;;25.13;14.40;;;;;;;;;;5099434;28;20031;-79
2021/08/27 00:10:49;;;;;;;24.60;17.10;;;;;;;;;;5104659;28;20418;-77
2021/08/27 00:13:15;;;;;;;24.77;14.48;;;;;;;;;;5099498;28;20028;-77
2021/08/27 00:15:41;;;;;;;22.80;14.27;;;;;;;;;;5097671;28;20036;-76
2021/08/27 00:18:06;;;;;;;20.65;13.90;;;;;;;;;;5097492;28;20077;-78
2021/08/27 00:20:32;;;;;;;28.33;14.05;;;;;;;;;;5097136;28;20103;-77
2021/08/27 00:22:58;;;;;;;18.13;13.07;;;;;;;;;;5095772;28;20471;-77
2021/08/27 00:25:24;;;;;;;20.48;13.63;;;;;;;;;;5078913;28;20024;-82
2021/08/27 00:27:50;;;;;;;20.13;12.55;;;;;;;;;;5096921;28;20028;-78
2021/08/27 00:30:16;;;;;;;21.88;12.27;;;;;;;;;;5096867;28;20031;-78
2021/08/27 00:32:42;;;;;;;21.05;13.05;;;;;;;;;;5095515;28;20384;-77
2021/08/27 00:35:08;;;;;;;21.23;12.73;;;;;;;;;;5096746;28;20028;-78
2021/08/27 00:37:35;;;;;;;22.92;12.65;;;;;;;;;;5096930;28;20031;-77
2021/08/27 00:40:01;;;;;;;17.85;11.82;;;;;;;;;;5095031;28;20032;-77
2021/08/27 00:42:27;;;;;;;19.88;11.65;;;;;;;;;;5096452;28;20108;-78
2021/08/27 00:44:53;;;;;;;19.80;11.27;;;;;;;;;;5096588;28;20071;-77
2021/08/27 00:47:19;;;;;;;18.55;11.57;;;;;;;;;;5096582;28;20380;-84
2021/08/27 00:49:45;;;;;;;16.63;11.70;;;;;;;;;;5096654;28;20024;-78
2021/08/27 00:52:11;;;;;;;20.02;12.07;;;;;;;;;;5095163;28;20077;-77
2021/08/27 00:54:42;;;;;;;21.02;12.60;;;;;;;;;;5095129;28;20409;-77
2021/08/27 00:57:08;;;;;;;19.38;11.00;;;;;;;;;;5095021;28;20028;-78
2021/08/27 00:59:37;;;;;;;22.58;11.98;;;;;;;;;;5096265;28;20077;-77
2021/08/27 01:02:04;;;;;;;21.83;11.90;;;;;;;;;;5096276;28;20034;-77
2021/08/27 01:04:30;;;;;;;19.13;12.60;;;;;;;;;;5095725;28;20414;-78
2021/08/27 01:07:00;;;;;;;18.15;11.77;;;;;;;;;;5094856;28;20031;-78
2021/08/27 01:09:31;;;;;;;16.63;10.45;;;;;;;;;;5094823;28;20539;-83
2021/08/27 01:12:05;;;;;;;24.25;12.23;;;;;;;;;;5095951;28;20437;-77
2021/08/27 01:14:36;;;;;;;25.88;15.70;;;;;;;;;;5096050;28;20426;-78
2021/08/27 01:17:11;;;;;;;21.00;12.30;;;;;;;;;;5095944;28;20072;-78
2021/08/27 01:19:46;;;;;;;24.98;13.75;;;;;;;;;;5096074;28;20047;-77
2021/08/27 01:22:52;;;;;;;27.88;15.32;;;;;;;;;;5095769;28;20020;-78
2021/08/27 01:25:21;;;;;;;23.02;12.73;;;;;;;;;;5082101;28;20111;-77
2021/08/27 01:27:49;;;;;;;19.35;10.55;;;;;;;;;;5095684;28;20054;-77
2021/08/27 01:30:19;;;;;;;22.55;12.65;;;;;;;;;;5095596;28;20073;-81
2021/08/27 01:32:59;;;;;;;18.98;10.85;;;;;;;;;;5095561;28;20123;-78
2021/08/27 01:35:29;;;;;;;15.90;10.52;;;;;;;;;;5095576;28;20360;-78
2021/08/27 01:37:58;;;;;;;20.75;11.05;;;;;;;;;;5094258;28;20024;-77
2021/08/27 01:40:26;;;;;;;25.73;13.75;;;;;;;;;;5095537;28;20048;-78
2021/08/27 01:42:52;;;;;;;27.15;14.30;;;;;;;;;;5094006;28;20051;-78
2021/08/27 01:45:19;;;;;;;24.58;13.80;;;;;;;;;;5095358;28;20036;-77
2021/08/27 01:47:45;;;;;;;19.92;11.40;;;;;;;;;;5095393;28;20028;-78
2021/08/27 01:50:13;;;;;;;16.58;10.50;;;;;;;;;;5095236;28;20031;-78
2021/08/27 01:52:40;;;;;;;16.30;10.52;;;;;;;;;;5095248;28;20047;-77
2021/08/27 01:55:08;;;;;;;19.60;10.85;;;;;;;;;;5095126;28;20032;-77
2021/08/27 01:57:35;;;;;;;18.48;11.38;;;;;;;;;;5095400;28;20020;-77
2021/08/27 02:00:03;;;;;;;17.58;12.25;;;;;;;;;;5095108;28;20107;-77
2021/08/27 02:02:29;;;;;;;21.65;11.57;;;;;;;;;;5095271;28;20376;-78
2021/08/27 02:05:01;;;;;;;23.10;13.93;;;;;;;;;;5095057;28;20020;-78
2021/08/27 02:07:27;;;;;;;26.92;16.00;;;;;;;;;;5095003;28;20026;-77
2021/08/27 02:09:55;;;;;;;27.95;16.15;;;;;;;;;;5094954;28;20115;-78
2021/08/27 02:12:22;;;;;;;28.85;15.38;;;;;;;;;;5094722;28;20543;-82
2021/08/27 02:14:52;;;;;;;26.90;15.13;;;;;;;;;;5094943;28;20411;-81
2021/08/27 02:17:18;;;;;;;20.48;12.80;;;;;;;;;;5094272;28;20150;-77
2021/08/27 02:19:44;;;;;;;16.85;10.68;;;;;;;;;;5093387;28;20480;-78
2021/08/27 02:22:15;;;;;;;19.65;12.00;;;;;;;;;;5094642;28;20058;-78
2021/08/27 02:24:50;;;;;;;20.38;11.70;;;;;;;;;;5094664;28;20028;-78
2021/08/27 02:27:16;;;;;;;23.08;13.13;;;;;;;;;;5094662;28;20388;-78
2021/08/27 02:29:43;;;;;;;19.52;12.95;;;;;;;;;;5094426;28;20068;-77
2021/08/27 02:32:11;;;;;;;19.35;12.70;;;;;;;;;;5093097;28;20024;-77
2021/08/27 02:34:43;;;;;;;21.05;13.05;;;;;;;;;;5094459;28;20020;-83
2021/08/27 02:37:12;;;;;;;16.73;11.00;;;;;;;;;;5093236;28;20040;-77
2021/08/27 02:39:38;;;;;;;15.73;10.68;;;;;;;;;;5093043;28;20016;-77
2021/08/27 02:42:04;;;;;;;21.52;10.60;;;;;;;;;;5094333;28;20051;-78
2021/08/27 02:44:30;;;;;;;16.88;10.15;;;;;;;;;;5094152;28;20024;-78
2021/08/27 02:46:56;;;;;;;19.55;11.32;;;;;;;;;;5094217;28;20085;-78
2021/08/27 02:49:21;;;;;;;17.17;10.65;;;;;;;;;;5094297;28;20082;-77
2021/08/27 02:52:15;;;;;;;15.88;10.88;;;;;;;;;;5093989;28;20032;-78
2021/08/27 02:54:54;;;;;;;19.38;11.65;;;;;;;;;;5065486;28;20036;-78
2021/08/27 02:57:21;;;;;;;19.85;12.18;;;;;;;;;;5094657;28;20024;-78
2021/08/27 02:59:49;;;;;;;18.42;10.98;;;;;;;;;;5094375;28;20023;-78
2021/08/27 03:02:16;;;;;;;21.40;12.60;;;;;;;;;;5095028;28;20028;-78
2021/08/27 03:04:48;;;;;;;21.30;14.02;;;;;;;;;;5093902;28;20039;-77
2021/08/27 03:07:16;;;;;;;26.23;14.98;;;;;;;;;;5092677;28;20051;-77
2021/08/27 03:25:18;;;;;;;19.00;13.15;;;;;;;;;;5121303;27;1560916;-78
2021/08/27 03:27:47;;;;;;;21.08;12.32;;;;;;;;;;5152714;27;20034;-82
2021/08/27 03:30:21;;;;;;;23.80;15.05;;;;;;;;;;5152560;27;20015;-76
2021/08/27 03:32:54;;;;;;;21.75;13.80;;;;;;;;;;5152357;27;20027;-77
2021/08/27 03:35:21;;;;;;;20.60;13.13;;;;;;;;;;5152490;27;20048;-75
2021/08/27 03:37:51;;;;;;;17.58;12.27;;;;;;;;;;5152763;27;20019;-78
2021/08/27 03:40:19;;;;;;;20.33;12.15;;;;;;;;;;5133497;27;20385;-75
2021/08/27 03:42:45;;;;;;;20.88;12.20;;;;;;;;;;5133591;27;20034;-76
2021/08/27 03:45:11;;;;;;;20.77;11.38;;;;;;;;;;5152076;27;20102;-78
2021/08/27 03:47:42;;;;;;;24.00;12.40;;;;;;;;;;5152192;27;20031;-76
2021/08/27 03:50:10;;;;;;;21.60;13.60;;;;;;;;;;5151931;27;20057;-75
2021/08/27 03:52:37;;;;;;;30.50;18.15;;;;;;;;;;5151974;27;20419;-77
2021/08/27 03:55:05;;;;;;;26.60;15.50;;;;;;;;;;5151919;27;20100;-74
2021/08/27 03:57:31;;;;;;;31.85;21.63;;;;;;;;;;5151790;27;20019;-76
2021/08/27 03:59:58;;;;;;;42.53;25.00;;;;;;;;;;5151764;27;20054;-74
2021/08/27 04:02:26;;;;;;;54.33;34.72;;;;;;;;;;5151931;27;20351;-76
2021/08/27 04:05:10;;;;;;;52.40;29.55;;;;;;;;;;5151597;27;20069;-73
2021/08/27 04:07:36;;;;;;;47.17;28.15;;;;;;;;;;5133317;27;20059;-73
2021/08/27 04:10:05;;;;;;;45.00;25.85;;;;;;;;;;5133025;27;20034;-74
2021/08/27 04:12:30;;;;;;;21.30;15.63;;;;;;;;;;5153269;27;20482;-75
2021/08/27 04:14:56;;;;;;;22.80;11.60;;;;;;;;;;5155878;27;20027;-74
2021/08/27 04:17:22;;;;;;;20.45;13.88;;;;;;;;;;5151715;27;20098;-74
2021/08/27 04:19:47;;;;;;;19.95;11.80;;;;;;;;;;5157200;27;20083;-74
2021/08/27 04:22:13;;;;;;;22.27;14.50;;;;;;;;;;5142855;27;20057;-75
2021/08/27 04:24:39;;;;;;;25.90;19.67;;;;;;;;;;5127405;28;20052;-74
2021/08/27 04:27:05;;;;;;;24.35;13.32;;;;;;;;;;5118337;28;20102;-75
2021/08/27 04:29:30;;;;;;;21.33;16.10;;;;;;;;;;5116423;28;20035;-75
2021/08/27 04:31:57;;;;;;;19.02;13.02;;;;;;;;;;5117668;28;20035;-75
2021/08/27 04:34:23;;;;;;;19.80;12.68;;;;;;;;;;5117565;28;20035;-80
2021/08/27 04:36:49;;;;;;;20.90;14.27;;;;;;;;;;5116696;28;20055;-76
2021/08/27 04:39:15;;;;;;;27.60;15.68;;;;;;;;;;5117451;28;20100;-76
2021/08/27 04:41:41;;;;;;;26.55;15.00;;;;;;;;;;5116928;28;20028;-75
2021/08/27 04:44:07;;;;;;;24.30;15.27;;;;;;;;;;5117280;28;20050;-75
2021/08/27 04:46:33;;;;;;;20.73;13.40;;;;;;;;;;5117579;28;20023;-75
2021/08/27 04:48:59;;;;;;;25.17;15.45;;;;;;;;;;5116952;28;20030;-75
2021/08/27 04:51:24;;;;;;;19.73;12.30;;;;;;;;;;5117099;28;20024;-76
2021/08/27 04:53:50;;;;;;;17.80;12.65;;;;;;;;;;5116646;27;20535;-75
2021/08/27 04:56:16;;;;;;;18.83;13.18;;;;;;;;;;5116582;28;20073;-80
2021/08/27 04:58:41;;;;;;;18.27;12.25;;;;;;;;;;5116844;28;20027;-77
2021/08/27 05:01:07;;;;;;;22.23;15.77;;;;;;;;;;5115922;28;20467;-75
2021/08/27 05:03:34;;;;;;;20.77;12.55;;;;;;;;;;5117230;28;20028;-76
2021/08/27 05:06:00;;;;;;;23.02;16.33;;;;;;;;;;5114791;28;20374;-76
2021/08/27 05:08:26;;;;;;;20.77;11.95;;;;;;;;;;5116356;28;20100;-75
2021/08/27 05:10:52;;;;;;;23.42;15.85;;;;;;;;;;5116104;28;20381;-75
2021/08/27 05:13:17;;;;;;;23.33;15.50;;;;;;;;;;5116283;28;20045;-76
2021/08/27 05:15:43;;;;;;;26.20;17.80;;;;;;;;;;5116768;28;20098;-74
2021/08/27 05:18:09;;;;;;;26.33;16.90;;;;;;;;;;5116429;28;20087;-86
2021/08/27 05:20:34;;;;;;;31.05;19.00;;;;;;;;;;5116787;28;20057;-75
2021/08/27 05:23:01;;;;;;;22.77;15.70;;;;;;;;;;5116619;28;20475;-74
2021/08/27 05:25:28;;;;;;;26.20;14.48;;;;;;;;;;5136389;27;20043;-75
2021/08/27 05:27:53;;;;;;;23.92;15.18;;;;;;;;;;5137477;27;20023;-75
2021/08/27 05:30:20;;;;;;;24.60;14.75;;;;;;;;;;5136341;27;20056;-75
2021/08/27 05:32:49;;;;;;;22.75;15.70;;;;;;;;;;5138579;27;20102;-74
2021/08/27 05:35:15;;;;;;;23.13;14.80;;;;;;;;;;5136166;27;20027;-75
2021/08/27 05:37:42;;;;;;;25.80;15.70;;;;;;;;;;5116658;27;20023;-79
2021/08/27 05:40:09;;;;;;;23.83;16.58;;;;;;;;;;5118154;27;20478;-82
2021/08/27 05:42:38;;;;;;;24.33;17.58;;;;;;;;;;5136934;27;20467;-77
2021/08/27 05:45:05;;;;;;;23.50;15.18;;;;;;;;;;5135976;27;20063;-77
2021/08/27 05:47:31;;;;;;;29.55;19.55;;;;;;;;;;5135836;27;20110;-76
2021/08/27 05:49:59;;;;;;;23.63;14.85;;;;;;;;;;5135792;27;20066;-77
2021/08/27 05:52:26;;;;;;;24.67;14.25;;;;;;;;;;5117262;27;20497;-76
2021/08/27 05:54:52;;;;;;;24.08;17.73;;;;;;;;;;5135591;27;20023;-77
2021/08/27 05:57:18;;;;;;;22.30;15.55;;;;;;;;;;5135675;27;20030;-77
2021/08/27 05:59:43;;;;;;;28.83;20.50;;;;;;;;;;5117504;27;20027;-84
2021/08/27 06:02:09;;;;;;;20.52;18.17;;;;;;;;;;5117183;27;20386;-77
2021/08/27 06:04:35;;;;;;;22.73;15.77;;;;;;;;;;5135741;27;20026;-76
2021/08/27 06:07:00;;;;;;;23.35;15.43;;;;;;;;;;5135910;27;20015;-77
2021/08/27 06:09:26;;;;;;;24.58;18.00;;;;;;;;;;5135464;27;20500;-76
2021/08/27 06:11:52;;;;;;;20.70;13.77;;;;;;;;;;5135460;27;20466;-77
2021/08/27 06:14:18;;;;;;;20.05;13.50;;;;;;;;;;5135239;27;20042;-77
2021/08/27 06:16:44;;;;;;;17.73;11.98;;;;;;;;;;5135226;27;20023;-76
2021/08/27 06:19:10;;;;;;;19.88;14.30;;;;;;;;;;5116868;27;20019;-82
2021/08/27 06:21:37;;;;;;;24.98;18.27;;;;;;;;;;5136137;27;20400;-76
2021/08/27 06:24:04;;;;;;;23.58;17.95;;;;;;;;;;5135061;27;20043;-76
2021/08/27 06:26:30;;;;;;;18.55;14.13;;;;;;;;;;5116974;27;20359;-78
2021/08/27 06:29:00;;;;;;;19.60;14.60;;;;;;;;;;5135258;27;20076;-77
2021/08/27 06:31:28;;;;;;;20.13;16.00;;;;;;;;;;5135135;27;20023;-76
2021/08/27 06:33:54;;;;;;;27.83;17.83;;;;;;;;;;5135215;27;20515;-76
2021/08/27 06:36:21;;;;;;;21.02;18.30;;;;;;;;;;5117031;27;20027;-75
2021/08/27 06:38:47;;;;;;;21.92;18.15;;;;;;;;;;5117185;27;20027;-77
2021/08/27 06:41:12;;;;;;;26.42;18.05;;;;;;;;;;5134944;27;20027;-76
2021/08/27 06:43:42;;;;;;;19.20;13.63;;;;;;;;;;5134810;27;20051;-76
2021/08/27 06:46:20;;;;;;;23.63;17.92;;;;;;;;;;5134797;27;20019;-75
2021/08/27 06:48:46;;;;;;;19.90;13.70;;;;;;;;;;5134814;27;20466;-75
2021/08/27 06:51:12;;;;;;;21.10;17.77;;;;;;;;;;5134823;27;20042;-75
2021/08/27 06:53:38;;;;;;;21.85;15.60;;;;;;;;;;5134601;27;20486;-75
2021/08/27 06:56:04;;;;;;;22.17;15.52;;;;;;;;;;5134720;27;20466;-75
2021/08/27 06:58:30;;;;;;;23.92;18.17;;;;;;;;;;5134642;27;20076;-74
2021/08/27 07:00:56;;;;;;;20.08;14.85;;;;;;;;;;5134682;27;20023;-74
2021/08/27 07:03:22;;;;;;;18.95;12.90;;;;;;;;;;5134716;27;20061;-74
2021/08/27 07:05:48;;;;;;;20.77;16.40;;;;;;;;;;5134571;27;20027;-74
2021/08/27 07:08:14;;;;;;;16.30;10.82;;;;;;;;;;5116483;27;20030;-74
2021/08/27 07:10:40;;;;;;;22.33;16.45;;;;;;;;;;5134560;27;20026;-74
2021/08/27 07:13:05;;;;;;;18.70;13.68;;;;;;;;;;5115864;28;20080;-74
2021/08/27 07:15:32;;;;;;;17.50;12.18;;;;;;;;;;5134629;28;20382;-74
2021/08/27 07:17:58;;;;;;;15.43;11.25;;;;;;;;;;5134451;28;20046;-77
2021/08/27 07:20:24;;;;;;;16.50;11.13;;;;;;;;;;5134761;28;20462;-75
2021/08/27 07:22:50;;;;;;;16.15;12.15;;;;;;;;;;5134286;28;20575;-75
2021/08/27 07:25:16;;;;;;;21.60;15.88;;;;;;;;;;5134237;28;20039;-74
2021/08/27 07:27:42;;;;;;;19.40;16.02;;;;;;;;;;5134494;28;20031;-74
2021/08/27 07:30:09;;;;;;;18.17;14.43;;;;;;;;;;5134357;28;20045;-74
2021/08/27 07:32:36;;;;;;;19.95;14.20;;;;;;;;;;5134412;28;20031;-74
2021/08/27 07:35:03;;;;;;;15.35;12.90;;;;;;;;;;5134265;28;20035;-74
2021/08/27 07:37:29;;;;;;;15.35;10.85;;;;;;;;;;5115868;28;20382;-80
2021/08/27 07:39:54;;;;;;;15.52;10.20;;;;;;;;;;5097445;28;20035;-74
2021/08/27 07:42:20;;;;;;;14.70;12.02;;;;;;;;;;5113640;28;20020;-74
2021/08/27 07:44:46;;;;;;;16.48;12.43;;;;;;;;;;5113788;28;20483;-75
2021/08/27 07:47:14;;;;;;;16.20;11.77;;;;;;;;;;5095232;28;20030;-74
2021/08/27 07:49:40;;;;;;;16.35;10.77;;;;;;;;;;5113774;28;20110;-74
2021/08/27 07:52:06;;;;;;;12.18;8.20;;;;;;;;;;5121974;28;20050;-74
2021/08/27 07:54:32;;;;;;;14.38;11.15;;;;;;;;;;5120336;27;20386;-74
2021/08/27 07:56:57;;;;;;;16.48;12.00;;;;;;;;;;5114185;27;20023;-76
2021/08/27 07:59:23;;;;;;;18.02;10.73;;;;;;;;;;5115215;27;20162;-75
2021/08/27 08:01:52;;;;;;;15.95;12.13;;;;;;;;;;5120051;27;20034;-74
2021/08/27 08:04:19;;;;;;;11.60;7.78;;;;;;;;;;5136582;27;20012;-75
2021/08/27 08:06:45;;;;;;;14.32;9.98;;;;;;;;;;5136494;27;20523;-74
2021/08/27 08:09:10;;;;;;;14.27;12.38;;;;;;;;;;5118325;27;20029;-75
2021/08/27 08:11:37;;;;;;;12.75;9.73;;;;;;;;;;5136800;27;20015;-75
2021/08/27 08:14:03;;;;;;;12.68;8.80;;;;;;;;;;5134288;27;20107;-75
2021/08/27 08:16:28;;;;;;;12.10;8.07;;;;;;;;;;5099971;27;20031;-76
2021/08/27 08:18:54;;;;;;;13.15;8.43;;;;;;;;;;5121249;27;20023;-74
2021/08/27 08:21:23;;;;;;;10.85;7.43;;;;;;;;;;5117139;28;20141;-74
2021/08/27 08:23:54;;;;;;;18.42;9.95;;;;;;;;;;5116821;28;20395;-74
2021/08/27 08:26:20;;;;;;;11.77;9.50;;;;;;;;;;5117087;28;20024;-74
2021/08/27 08:28:52;;;;;;;10.65;7.75;;;;;;;;;;5117012;28;20019;-75
2021/08/27 08:31:20;;;;;;;11.80;7.88;;;;;;;;;;5137614;27;20474;-74
2021/08/27 08:33:46;;;;;;;12.95;8.98;;;;;;;;;;5119014;27;20031;-75
2021/08/27 08:36:12;;;;;;;14.85;13.05;;;;;;;;;;5137743;27;20474;-75
2021/08/27 08:38:38;;;;;;;12.02;7.90;;;;;;;;;;5119237;27;20031;-74
2021/08/27 08:41:04;;;;;;;14.32;8.63;;;;;;;;;;5137407;27;20027;-75
2021/08/27 08:43:30;;;;;;;12.93;8.50;;;;;;;;;;5137283;27;20027;-74
2021/08/27 08:45:56;;;;;;;10.52;7.60;;;;;;;;;;5137149;27;20027;-74
2021/08/27 08:48:24;;;;;;;12.30;8.57;;;;;;;;;;5146217;27;20050;-74
2021/08/27 08:50:50;;;;;;;13.68;8.75;;;;;;;;;;5148942;27;20027;-75
2021/08/27 08:53:21;;;;;;;10.90;7.15;;;;;;;;;;5137793;27;20110;-74
2021/08/27 08:55:47;;;;;;;11.35;9.07;;;;;;;;;;5135978;27;20091;-74
2021/08/27 08:58:13;;;;;;;13.02;8.10;;;;;;;;;;5133229;27;20031;-74
2021/08/27 09:00:39;;;;;;;13.02;7.25;;;;;;;;;;5102913;27;20023;-75
2021/08/27 09:03:06;;;;;;;11.75;7.18;;;;;;;;;;5139466;27;20488;-74
2021/08/27 09:05:33;;;;;;;10.95;7.32;;;;;;;;;;5122334;27;20023;-75
2021/08/27 09:07:58;;;;;;;14.75;7.95;;;;;;;;;;5136983;27;20377;-74
2021/08/27 09:10:24;;;;;;;14.73;8.43;;;;;;;;;;5143275;27;20044;-75
2021/08/27 09:12:51;;;;;;;15.45;9.38;;;;;;;;;;5136849;27;20023;-75
2021/08/27 09:15:20;;;;;;;9.85;7.47;;;;;;;;;;5118113;27;20031;-75
2021/08/27 09:17:51;;;;;;;11.95;8.88;;;;;;;;;;5117975;27;20023;-74
2021/08/27 09:20:23;;;;;;;11.43;9.18;;;;;;;;;;5137384;27;20023;-91
2021/08/27 09:22:56;;;;;;;12.85;8.40;;;;;;;;;;5138186;27;20023;-75
2021/08/27 09:25:33;;;;;;;12.90;8.23;;;;;;;;;;5134824;27;20054;-75
2021/08/27 09:28:11;;;;;;;11.05;8.63;;;;;;;;;;5136126;27;20042;-74
2021/08/27 09:30:54;;;;;;;11.25;8.45;;;;;;;;;;5136522;27;20023;-74
2021/08/27 09:33:25;;;;;;;13.95;8.48;;;;;;;;;;5136333;27;20037;-74
2021/08/27 09:36:02;;;;;;;12.18;8.77;;;;;;;;;;5117688;27;20069;-74
2021/08/27 09:38:30;;;;;;;15.02;8.38;;;;;;;;;;5117511;27;20027;-75
2021/08/27 09:41:11;;;;;;;12.40;8.40;;;;;;;;;;5117528;27;20031;-85
2021/08/27 09:43:42;;;;;;;11.02;8.27;;;;;;;;;;5137501;27;20069;-75
2021/08/27 09:46:36;;;;;;;11.60;8.23;;;;;;;;;;5116890;27;20080;-74
2021/08/27 10:12:15;;;;;;;13.70;8.68;;;;;;;;;;5135916;27;20030;-74
2021/08/27 10:14:41;;;;;;;17.92;11.93;;;;;;;;;;5116847;27;20031;-74
2021/08/27 10:17:07;;;;;;;54.08;34.10;;;;;;;;;;5135306;27;20042;-74
2021/08/27 10:19:33;;;;;;;22.13;15.30;;;;;;;;;;5135301;27;20030;-74
2021/08/27 10:21:59;;;;;;;18.13;12.20;;;;;;;;;;5135061;27;20023;-74
2021/08/27 10:24:25;;;;;;;33.90;23.15;;;;;;;;;;5135024;27;20092;-74
2021/08/27 10:26:51;;;;;;;18.15;11.00;;;;;;;;;;5116936;27;20425;-74
2021/08/27 10:29:18;;;;;;;48.83;30.83;;;;;;;;;;5135428;27;20075;-74
2021/08/27 10:31:47;;;;;;;31.40;17.75;;;;;;;;;;5116831;27;20027;-73
2021/08/27 10:34:17;;;;;;;14.20;5.85;;;;;;;;;;5135232;27;20455;-73
2021/08/27 10:36:48;;;;;;;30.77;17.33;;;;;;;;;;5135035;27;20027;-74
2021/08/27 10:39:40;;;;;;;33.65;19.95;;;;;;;;;;5116978;27;20023;-74
2021/08/27 10:42:07;;;;;;;28.13;18.17;;;;;;;;;;5117366;27;20083;-73
2021/08/27 10:44:46;;;;;;;16.92;11.25;;;;;;;;;;5134866;27;20466;-74
2021/08/27 10:47:12;;;;;;;12.43;7.93;;;;;;;;;;5134821;27;20045;-74
2021/08/27 10:49:46;;;;;;;12.05;7.53;;;;;;;;;;5134789;27;20027;-74
2021/08/27 10:52:32;;;;;;;10.93;6.38;;;;;;;;;;5116240;27;20111;-74
2021/08/27 10:55:05;;;;;;;11.80;7.22;;;;;;;;;;5134736;27;20109;-74
2021/08/27 10:57:45;;;;;;;11.82;6.07;;;;;;;;;;5134630;27;20026;-74
2021/08/27 11:00:11;;;;;;;13.07;5.72;;;;;;;;;;5135398;27;20485;-74
2021/08/27 11:02:54;;;;;;;10.90;6.82;;;;;;;;;;5135264;27;20038;-74
2021/08/27 11:05:37;;;;;;;9.00;6.03;;;;;;;;;;5116399;28;20022;-74
2021/08/27 11:08:09;;;;;;;10.93;6.38;;;;;;;;;;5135449;27;20030;-74
2021/08/27 11:10:37;;;;;;;9.85;5.32;;;;;;;;;;5134497;27;20016;-74
2021/08/27 11:13:09;;;;;;;9.07;5.35;;;;;;;;;;5135954;27;20050;-74
2021/08/27 11:15:36;;;;;;;9.52;6.32;;;;;;;;;;5118806;28;20054;-74
2021/08/27 11:18:17;;;;;;;10.05;6.65;;;;;;;;;;5116700;28;20019;-74
2021/08/27 11:20:44;;;;;;;10.50;7.15;;;;;;;;;;5116136;28;20030;-74
2021/08/27 11:23:10;;;;;;;;;;;;;;;;;;5130915;28;19915;-74
2021/08/27 11:25:39;;;;;;;;;;;;;;;;;;5116390;28;19912;-74
2021/08/27 11:28:10;;;;;;;9.50;5.93;;;;;;;;;;5134340;28;20054;-74
2021/08/27 11:30:41;;;;;;;12.68;6.43;;;;;;;;;;5130511;28;20024;-74
2021/08/27 11:33:38;;;;;;;11.43;6.38;;;;;;;;;;5113702;28;20028;-74
2021/08/27 11:36:05;;;;;;;12.30;5.82;;;;;;;;;;5116789;28;20368;-74
2021/08/27 11:38:31;;;;;;;10.73;5.82;;;;;;;;;;5099916;28;20028;-74
2021/08/27 11:40:59;;;;;;;10.38;7.03;;;;;;;;;;5117866;28;20019;-74
2021/08/27 11:43:35;;;;;;;11.80;6.03;;;;;;;;;;5137243;27;20030;-74
2021/08/27 11:46:03;;;;;;;10.73;5.53;;;;;;;;;;5138320;27;20076;-74
2021/08/27 11:48:38;;;;;;;10.77;6.25;;;;;;;;;;5138302;27;20019;-74
2021/08/27 11:51:08;;;;;;;14.88;5.97;;;;;;;;;;5138385;27;20019;-74
2021/08/27 11:53:34;;;;;;;8.77;5.70;;;;;;;;;;5138372;27;20435;-74
2021/08/27 11:56:00;;;;;;;8.68;5.47;;;;;;;;;;5132490;27;20031;-76
2021/08/27 11:58:41;;;;;;;11.70;5.55;;;;;;;;;;5124414;27;20027;-74
2021/08/27 12:01:07;;;;;;;9.48;6.10;;;;;;;;;;5129637;27;20034;-75
2021/08/27 12:10:18;;;;;;;10.13;5.78;;;;;;;;;;5138181;27;20049;-74
2021/08/27 12:12:47;;;;;;;12.38;5.68;;;;;;;;;;5137525;27;20488;-74
2021/08/27 12:15:20;;;;;;;12.38;4.95;;;;;;;;;;5137794;27;20480;-75
2021/08/27 12:18:03;;;;;;;8.82;4.88;;;;;;;;;;5137624;27;20015;-75
2021/08/27 12:20:33;;;;;;;9.25;5.72;;;;;;;;;;5137943;27;20030;-74
2021/08/27 12:23:08;;;;;;;9.10;5.40;;;;;;;;;;5136216;27;20579;-75
2021/08/27 12:25:42;;;;;;;9.45;5.32;;;;;;;;;;5118673;27;20105;-76
2021/08/27 12:28:10;;;;;;;9.05;4.90;;;;;;;;;;5119276;27;20027;-74
2021/08/27 12:30:58;;;;;;;6.82;4.88;;;;;;;;;;5118225;27;20046;-75
2021/08/27 12:33:26;;;;;;;11.57;5.10;;;;;;;;;;5111917;27;20473;-75
2021/08/27 12:35:55;;;;;;;10.70;5.80;;;;;;;;;;5137272;27;20114;-75
2021/08/27 12:38:21;;;;;;;7.45;4.75;;;;;;;;;;5137358;27;20100;-75
2021/08/27 12:40:47;;;;;;;8.73;5.15;;;;;;;;;;5137105;27;20030;-75
2021/08/27 12:43:20;;;;;;;7.30;5.07;;;;;;;;;;5137383;27;20115;-75
2021/08/27 12:45:51;;;;;;;8.63;4.93;;;;;;;;;;5136768;27;20019;-75
2021/08/27 12:48:21;;;;;;;9.38;6.07;;;;;;;;;;5137489;27;20034;-77
2021/08/27 12:51:04;;;;;;;9.95;4.57;;;;;;;;;;5137824;27;20359;-77
2021/08/27 12:53:37;;;;;;;8.18;5.03;;;;;;;;;;5137718;27;20050;-74
2021/08/27 12:56:11;;;;;;;12.40;4.95;;;;;;;;;;5113920;27;20381;-74
2021/08/27 12:58:41;;;;;;;9.00;4.45;;;;;;;;;;5137039;27;20023;-74
2021/08/27 13:01:29;;;;;;;4.47;3.28;;;;;;;;;;5120610;27;20023;-75
2021/08/27 13:03:59;;;;;;;8.55;4.03;;;;;;;;;;5137160;27;20459;-74
2021/08/27 13:06:41;;;;;;;6.82;3.15;;;;;;;;;;5136920;27;20085;-74
2021/08/27 13:09:11;;;;;;;5.53;3.47;;;;;;;;;;5138666;27;20026;-74
2021/08/27 13:11:59;;;;;;;6.78;3.25;;;;;;;;;;5138495;27;20054;-75
2021/08/27 13:14:32;;;;;;;9.18;3.58;;;;;;;;;;5137748;27;20027;-74
2021/08/27 13:17:01;;;;;;;6.25;3.17;;;;;;;;;;5137367;27;20035;-75
2021/08/27 13:19:59;;;;;;;6.53;3.72;;;;;;;;;;5138471;27;20027;-73
2021/08/27 13:22:30;;;;;;;6.15;3.20;;;;;;;;;;5137463;27;20106;-74
2021/08/27 13:25:15;;;;;;;8.25;4.68;;;;;;;;;;5137107;27;20118;-75
2021/08/27 13:27:45;;;;;;;9.80;4.18;;;;;;;;;;5118657;27;20038;-77
2021/08/27 13:30:14;;;;;;;6.03;3.40;;;;;;;;;;5140046;27;20028;-79
2021/08/27 13:32:52;;;;;;;6.75;3.85;;;;;;;;;;5137949;27;20029;-74
2021/08/27 13:35:29;;;;;;;6.80;4.20;;;;;;;;;;5117977;27;20031;-73
2021/08/27 13:37:58;;;;;;;6.07;3.40;;;;;;;;;;5135444;27;20031;-73
2021/08/27 13:40:25;;;;;;;10.13;4.18;;;;;;;;;;5101182;27;20434;-73
2021/08/27 13:42:52;;;;;;;6.72;3.95;;;;;;;;;;5136347;27;20051;-73
2021/08/27 13:45:20;;;;;;;7.07;3.63;;;;;;;;;;5135656;27;20031;-72
2021/08/27 13:47:47;;;;;;;8.00;4.18;;;;;;;;;;5136120;27;20045;-73
2021/08/27 13:50:14;;;;;;;8.07;3.90;;;;;;;;;;5135597;27;20058;-73
2021/08/27 13:52:45;;;;;;;6.97;4.13;;;;;;;;;;5136278;27;20038;-73
2021/08/27 13:55:14;;;;;;;9.65;4.47;;;;;;;;;;5135812;27;20027;-73
2021/08/27 13:57:43;;;;;;;10.27;4.93;;;;;;;;;;5134686;27;20030;-72
2021/08/27 14:00:12;;;;;;;7.55;5.10;;;;;;;;;;5135741;27;20106;-74
2021/08/27 14:02:39;;;;;;;8.40;5.00;;;;;;;;;;5135707;27;20038;-74
2021/08/27 14:05:15;;;;;;;9.85;5.32;;;;;;;;;;5117302;27;20079;-73
2021/08/27 14:07:42;;;;;;;10.32;5.30;;;;;;;;;;5135299;27;20378;-73
2021/08/27 14:10:08;;;;;;;9.95;5.68;;;;;;;;;;5135606;27;20105;-73
2021/08/27 14:12:35;;;;;;;11.10;7.05;;;;;;;;;;5135189;27;20026;-71
2021/08/27 14:15:01;;;;;;;9.10;6.15;;;;;;;;;;5135058;27;20027;-72
2021/08/27 14:17:27;;;;;;;10.05;5.22;;;;;;;;;;5135114;27;20407;-73
2021/08/27 14:19:52;;;;;;;11.70;6.28;;;;;;;;;;5135084;27;20114;-74
2021/08/27 14:22:18;;;;;;;10.18;5.82;;;;;;;;;;5135464;27;20054;-73
2021/08/27 14:24:44;;;;;;;8.52;4.93;;;;;;;;;;5135057;27;20035;-73
2021/08/27 14:27:11;;;;;;;8.00;5.78;;;;;;;;;;5135335;27;20445;-72
2021/08/27 14:29:37;;;;;;;7.88;5.40;;;;;;;;;;5135525;27;20478;-73
2021/08/27 14:32:04;;;;;;;7.78;6.15;;;;;;;;;;5136485;27;20034;-72
2021/08/27 14:34:30;;;;;;;10.13;5.82;;;;;;;;;;5135161;27;20031;-73
2021/08/27 14:36:56;;;;;;;10.02;7.00;;;;;;;;;;5135126;27;20020;-72
2021/08/27 14:39:22;;;;;;;9.05;6.60;;;;;;;;;;5116716;27;20475;-72
2021/08/27 14:41:49;;;;;;;8.80;4.80;;;;;;;;;;5134755;27;20052;-72
2021/08/27 14:44:16;;;;;;;12.88;6.75;;;;;;;;;;5134790;27;20023;-72
2021/08/27 14:46:41;;;;;;;10.63;6.43;;;;;;;;;;5134843;27;20079;-72
2021/08/27 14:49:07;;;;;;;9.68;7.38;;;;;;;;;;5135316;27;20110;-73
2021/08/27 14:51:34;;;;;;;8.45;5.68;;;;;;;;;;5134700;27;20382;-72
2021/08/27 14:54:01;;;;;;;11.52;6.85;;;;;;;;;;5134742;27;20027;-73
2021/08/27 14:56:27;;;;;;;8.30;6.25;;;;;;;;;;5134789;27;20023;-74
2021/08/27 14:58:54;;;;;;;8.93;5.40;;;;;;;;;;5134604;27;20034;-73
2021/08/27 15:01:20;;;;;;;9.90;7.43;;;;;;;;;;5135023;27;20064;-73
2021/08/27 15:03:46;;;;;;;12.18;7.07;;;;;;;;;;5134887;27;20059;-73
2021/08/27 15:06:12;;;;;;;11.63;5.35;;;;;;;;;;5134760;27;20030;-74
2021/08/27 15:08:39;;;;;;;9.45;6.15;;;;;;;;;;5134548;27;20023;-72
2021/08/27 15:11:04;;;;;;;9.98;7.47;;;;;;;;;;5134679;27;20524;-73
2021/08/27 15:13:30;;;;;;;14.40;8.68;;;;;;;;;;5134381;27;20027;-73
2021/08/27 15:15:58;;;;;;;12.45;6.38;;;;;;;;;;5115941;28;20045;-73
2021/08/27 15:18:23;;;;;;;11.82;7.88;;;;;;;;;;5134718;28;20019;-73
2021/08/27 15:20:49;;;;;;;13.43;8.00;;;;;;;;;;5134363;28;20527;-72